Penola, South Australia

7:48 PM ACST on August 27, 2016 (GMT +0930)
Mount Gambier | | Change Station

Elev 210 ft 37.75 °S, 140.79 °E | Updated 18 minutes ago

Scattered Clouds
Scattered Clouds
52 °F
Feels Like 52 °F
N
10
Wind Variable Wind from North

Today
High -- | Low -- °F
--% Chance of Precip.
Yesterday
High -- | Low -- °F
Precip. -- in
Pressure 30.04 in
Visibility 6.2 miles
Clouds Scattered Clouds 6900 ft
Dew Point 39 °F
Humidity 62%
Rainfall 0.00 in
Snow Depth Not available.
6:35 AM 5:41 PM
Waning Crescent, 26% visible
METAR YMTG 271000Z AUTO 35009KT 9999 // SCT069 11/04 Q1017
Pressure 30.04 in
Visibility 6.2 miles
Clouds Scattered Clouds 6900 ft
Dew Point 39 °F
Humidity 62%
Rainfall 0.00 in
Snow Depth Not available.
6:35 AM 5:41 PM
Waning Crescent, 26% visible
METAR YMTG 271000Z AUTO 35009KT 9999 // SCT069 11/04 Q1017

10-Day Weather Forecast

Almanac

Astronomy

Aug. 27, 2016 Rise Set
Actual Time
Civil Twilight
Nautical Twilight
Astronomical Twilight
Moon
Length of Visible Light
Length of Day
Tomorrow will be .
, % of the Moon is Illuminated

Today's Extremes

Country Highs Country Lows

Community

WunderPhotos

Upload Photos

1,935,313 photos uploaded!

WunderBlog® & News

Nearby

Air Quality

  Air Quality AQ Index Pollutant
Not available.

Snow Depth

Station Depth Elevation

Earthquake Activity

City Distance Mag. Time & Date
Minimum magnitude displayed is 2.5.

Coastal Water Temperatures

Place Temperature

Stations

Nearby Weather Stations

Station Location Temp. Windchill Dew Point Humidity Wind Precip. Elev Updated Type